Time;durP1;ratioP1;P1;durP2;ratioP2;P2;SDS_P1;SDS_P2;PMS_P1;PMS_P2;Temp;Humidity;BMP_temperature;BMP_pressure;BME280_temperature;BME280_humidity;BME280_pressure;Samples;Min_cycle;Max_cycle;Signal;HPM_P1;HPM_P2
2022/05/25 00:01:08;;;;;;;0.00;0.00;;;13.20;99.90;226.50;231333.00;;;;5070939;28;20217;-70
2022/05/25 00:03:38;;;;;;;0.00;0.00;;;13.20;99.90;226.50;231333.00;;;;5061291;28;20198;-69
2022/05/25 00:06:10;;;;;;;0.00;0.00;;;13.00;99.90;226.50;231333.00;;;;5071669;28;20601;-68
2022/05/25 00:08:41;;;;;;;0.00;0.00;;;13.10;99.90;226.50;231333.00;;;;5072213;28;20190;-69
2022/05/25 00:11:11;;;;;;;0.10;0.10;;;13.20;99.90;226.50;231333.00;;;;5071857;28;20221;-68
2022/05/25 00:13:39;;;;;;;0.10;0.10;;;13.20;99.90;226.50;231333.00;;;;5071624;28;20234;-68
2022/05/25 00:16:08;;;;;;;0.00;0.00;;;13.20;99.90;226.50;231333.00;;;;5071653;28;20243;-69
2022/05/25 00:19:58;;;;;;;0.00;0.00;;;13.10;99.90;226.50;231333.00;;;;5070688;28;20194;-69
2022/05/25 00:21:26;;;;;;;0.00;0.00;;;13.10;99.90;226.50;231333.00;;;;5071433;28;20280;-68
2022/05/25 00:23:54;;;;;;;0.10;0.10;;;13.10;99.90;226.50;231333.00;;;;5071705;28;20194;-69
2022/05/25 00:26:23;;;;;;;0.00;0.00;;;13.10;99.90;226.50;231333.00;;;;5069902;28;20202;-68
2022/05/25 00:28:51;;;;;;;0.00;0.00;;;13.10;99.90;226.50;231333.00;;;;5071461;28;20189;-69
2022/05/25 00:31:20;;;;;;;0.10;0.10;;;13.10;99.90;226.50;231333.00;;;;5071837;28;20197;-69
2022/05/25 00:33:50;;;;;;;0.00;0.00;;;13.20;99.90;226.50;231333.00;;;;5071678;28;20654;-69
2022/05/25 00:36:19;;;;;;;0.00;0.00;;;13.20;51.70;226.50;231333.00;;;;5071252;28;20194;-69
2022/05/25 00:38:47;;;;;;;0.10;0.10;;;12.80;99.90;226.50;231333.00;;;;5063967;28;20559;-69
2022/05/25 00:41:16;;;;;;;0.00;0.00;;;12.70;99.90;226.50;231333.00;;;;5071546;28;20622;-69
2022/05/25 00:43:44;;;;;;;0.10;0.10;;;12.80;99.90;226.50;231333.00;;;;5069985;28;20612;-70
2022/05/25 00:46:18;;;;;;;0.00;0.00;;;12.90;99.90;226.50;231333.00;;;;5056835;28;20206;-69
2022/05/25 00:48:54;;;;;;;0.10;0.10;;;12.70;99.90;226.50;231333.00;;;;5070802;28;20551;-69
2022/05/25 00:51:30;;;;;;;0.10;0.10;;;12.70;99.90;226.50;231333.00;;;;5051735;28;20186;-68
2022/05/25 00:54:04;;;;;;;0.00;0.00;;;12.50;1.00;226.50;231333.00;;;;5067450;28;20220;-69
2022/05/25 00:56:36;;;;;;;0.10;0.10;;;12.50;1.00;226.50;231333.00;;;;5070931;28;20196;-69
2022/05/25 00:59:11;;;;;;;0.10;0.10;;;12.30;1.00;226.50;231333.00;;;;5070502;28;20251;-69
2022/05/25 01:01:41;;;;;;;0.00;0.00;;;12.30;1.00;226.50;231333.00;;;;5070294;28;20197;-69
2022/05/25 01:04:12;;;;;;;0.00;0.00;;;12.50;1.00;226.50;231333.00;;;;5071115;28;20660;-70
2022/05/25 01:07:14;;;;;;;0.10;0.10;;;12.60;1.00;226.50;231333.00;;;;5070417;28;20185;-69
2022/05/25 01:10:03;;;;;;;0.00;0.00;;;12.60;1.00;226.50;231333.00;;;;5070556;28;20219;-69
2022/05/25 01:12:55;;;;;;;0.00;0.00;;;12.80;1.00;226.50;231333.00;;;;5071406;28;20247;-69
2022/05/25 01:15:34;;;;;;;0.00;0.00;;;12.90;1.00;226.50;231333.00;;;;5070791;28;20243;-70
2022/05/25 01:18:17;;;;;;;0.00;0.00;;;13.20;1.00;226.50;231333.00;;;;5070400;28;20189;-69
2022/05/25 01:20:53;;;;;;;0.00;0.00;;;13.30;99.90;226.50;231333.00;;;;5060105;28;20274;-69
2022/05/25 01:23:54;;;;;;;0.00;0.00;;;13.40;99.90;226.50;231333.00;;;;5071521;28;20259;-69
2022/05/25 01:27:12;;;;;;;0.00;0.00;;;13.40;99.90;226.50;231333.00;;;;5053664;28;20255;-69
2022/05/25 01:30:21;;;;;;;0.00;0.00;;;13.40;99.90;226.50;231333.00;;;;5064022;28;20239;-69
2022/05/25 01:33:09;;;;;;;0.00;0.00;;;13.30;99.90;226.50;231333.00;;;;5069994;28;20263;-69
2022/05/25 01:35:51;;;;;;;0.10;0.10;;;13.20;99.90;226.50;231333.00;;;;5070702;28;20247;-69
2022/05/25 01:38:27;;;;;;;0.00;0.00;;;13.20;99.90;226.50;231333.00;;;;5070611;28;20536;-69
2022/05/25 01:41:03;;;;;;;0.00;0.00;;;13.20;99.90;226.50;231333.00;;;;5071678;28;20274;-69
2022/05/25 01:43:42;;;;;;;0.00;0.00;;;13.10;99.90;226.50;231333.00;;;;5070934;28;20605;-68
2022/05/25 01:46:20;;;;;;;0.10;0.10;;;13.00;1.00;226.50;231333.00;;;;5069783;28;20197;-69
2022/05/25 01:48:52;;;;;;;0.00;0.00;;;12.90;1.00;226.50;231333.00;;;;5070406;28;20190;-68
2022/05/25 01:51:26;;;;;;;0.10;0.10;;;12.80;1.00;226.50;231333.00;;;;5071329;28;20652;-68
2022/05/25 01:54:00;;;;;;;0.00;0.00;;;12.60;1.00;226.50;231333.00;;;;5071030;28;20221;-69
2022/05/25 01:56:34;;;;;;;0.10;0.10;;;12.70;1.00;226.50;231333.00;;;;5070409;28;20198;-69
2022/05/25 01:59:09;;;;;;;0.10;0.10;;;12.70;1.00;226.50;231333.00;;;;5063134;28;20194;-69
2022/05/25 02:01:49;;;;;;;0.00;0.00;;;12.80;1.00;226.50;231333.00;;;;5069997;28;20246;-69
2022/05/25 02:04:20;;;;;;;0.05;0.05;;;12.80;1.00;226.50;231333.00;;;;5071447;28;20573;-69
2022/05/25 02:07:25;;;;;;;0.00;0.00;;;12.90;1.00;226.50;231333.00;;;;5070120;28;20201;-69
2022/05/25 02:10:22;;;;;;;0.00;0.00;;;12.90;1.00;226.50;231333.00;;;;5070077;28;20616;-69
2022/05/25 02:13:23;;;;;;;0.00;0.00;;;13.00;1.00;226.50;231333.00;;;;5070823;28;20217;-69
2022/05/25 02:16:06;;;;;;;0.00;0.00;;;13.00;1.00;226.50;231333.00;;;;5069999;28;20196;-70
2022/05/25 02:18:42;;;;;;;0.00;0.00;;;13.00;1.00;226.50;231333.00;;;;5068794;28;20201;-70
2022/05/25 02:21:18;;;;;;;0.10;0.10;;;13.00;1.00;226.50;231333.00;;;;5063358;28;20625;-69
2022/05/25 02:23:54;;;;;;;0.05;0.05;;;13.10;1.00;226.50;231333.00;;;;5074063;28;20201;-69
2022/05/25 02:26:28;;;;;;;0.10;0.10;;;13.20;1.00;226.50;231333.00;;;;5072598;28;20981;-69
2022/05/25 02:29:06;;;;;;;0.10;0.10;;;13.20;99.90;226.50;231333.00;;;;5073156;28;20602;-69
2022/05/25 02:31:42;;;;;;;0.10;0.10;;;13.20;1.00;226.50;231333.00;;;;5072978;28;20247;-69
2022/05/25 02:34:20;;;;;;;0.10;0.10;;;13.10;99.90;226.50;231333.00;;;;5074187;28;20303;-70
2022/05/25 02:36:51;;;;;;;0.00;0.00;;;12.90;1.00;226.50;231333.00;;;;5073566;28;20721;-70
2022/05/25 02:39:21;;;;;;;0.10;0.10;;;12.90;1.00;226.50;231333.00;;;;5072770;28;20213;-70
2022/05/25 02:41:54;;;;;;;0.00;0.00;;;12.90;1.00;226.50;231333.00;;;;5073684;28;20546;-69
2022/05/25 02:44:23;;;;;;;0.10;0.10;;;12.90;1.00;226.50;231333.00;;;;5073309;28;20224;-69
2022/05/25 02:46:52;;;;;;;0.00;0.00;;;12.70;1.00;226.50;231333.00;;;;5053597;28;20202;-70
2022/05/25 02:49:22;;;;;;;0.00;0.00;;;12.60;1.00;226.50;231333.00;;;;5064181;28;20232;-70
2022/05/25 02:51:50;;;;;;;0.00;0.00;;;12.40;1.00;226.50;231333.00;;;;5069835;28;20208;-69
2022/05/25 02:54:22;;;;;;;0.10;0.10;;;12.40;1.00;226.50;231333.00;;;;5062597;28;20233;-70
2022/05/25 02:56:51;;;;;;;0.00;0.00;;;12.40;1.00;226.50;231333.00;;;;5064029;28;20194;-70
2022/05/25 02:59:20;;;;;;;0.10;0.10;;;12.40;1.00;226.50;231333.00;;;;5070143;28;20271;-70
2022/05/25 03:01:48;;;;;;;0.00;0.00;;;12.40;1.00;226.50;231333.00;;;;5070644;28;20204;-70
2022/05/25 03:04:17;;;;;;;0.10;0.10;;;12.40;1.00;226.50;231333.00;;;;5073909;28;20197;-70
2022/05/25 03:06:47;;;;;;;0.10;0.10;;;12.40;1.00;226.50;231333.00;;;;5073096;28;20236;-69
2022/05/25 03:09:16;;;;;;;0.00;0.00;;;12.40;1.00;226.50;231333.00;;;;5072771;28;20217;-70
2022/05/25 03:11:46;;;;;;;0.10;0.10;;;12.50;1.00;226.50;231333.00;;;;5073388;28;20194;-69
2022/05/25 03:14:14;;;;;;;0.00;0.00;;;12.60;1.00;226.50;231333.00;;;;5073789;28;20249;-70
2022/05/25 03:16:43;;;;;;;0.10;0.10;;;12.50;1.00;226.50;231333.00;;;;5071615;28;20205;-69
2022/05/25 03:19:11;;;;;;;0.00;0.00;;;12.40;1.00;226.50;231333.00;;;;5072795;28;20663;-70
2022/05/25 03:21:40;;;;;;;0.00;0.00;;;12.50;1.00;226.50;231333.00;;;;5072833;28;20186;-70
2022/05/25 03:24:10;;;;;;;0.00;0.00;;;12.60;1.00;226.50;231333.00;;;;5073102;28;20206;-70
2022/05/25 03:26:38;;;;;;;0.05;0.05;;;12.70;1.00;226.50;231333.00;;;;5070999;28;20185;-70
2022/05/25 03:29:08;;;;;;;0.00;0.00;;;12.70;1.00;226.50;231333.00;;;;5071796;28;20190;-70
2022/05/25 03:31:40;;;;;;;0.00;0.00;;;12.70;1.00;226.50;231333.00;;;;5072039;28;20198;-70
2022/05/25 03:34:09;;;;;;;0.10;0.10;;;12.70;1.00;226.50;231333.00;;;;5072821;28;20224;-70
2022/05/25 03:36:37;;;;;;;0.00;0.00;;;12.70;1.00;226.50;231333.00;;;;5072272;28;20182;-70
2022/05/25 03:39:06;;;;;;;0.00;0.00;;;12.80;1.00;226.50;231333.00;;;;5071729;28;20204;-69
2022/05/25 03:41:36;;;;;;;0.00;0.00;;;12.60;1.00;226.50;231333.00;;;;5072596;28;20185;-70
2022/05/25 03:44:05;;;;;;;0.00;0.00;;;12.70;1.00;226.50;231333.00;;;;5071505;28;20198;-70
2022/05/25 03:46:36;;;;;;;0.00;0.00;;;12.60;1.00;226.50;231333.00;;;;5068625;28;20197;-70
2022/05/25 03:49:04;;;;;;;0.00;0.00;;;12.50;1.00;226.50;231333.00;;;;5072073;28;20202;-70
2022/05/25 03:51:33;;;;;;;0.00;0.00;;;12.50;1.00;226.50;231333.00;;;;5072102;28;20201;-71
2022/05/25 03:54:01;;;;;;;0.10;0.10;;;12.40;1.00;226.50;231333.00;;;;5072588;28;20282;-70
2022/05/25 03:56:30;;;;;;;0.10;0.10;;;12.30;1.00;226.50;231333.00;;;;5070081;28;20190;-70
2022/05/25 03:59:00;;;;;;;0.03;0.03;;;12.30;1.00;226.50;231333.00;;;;5071110;28;20243;-71
2022/05/25 04:01:29;;;;;;;0.10;0.10;;;12.30;1.00;226.50;231333.00;;;;5063814;28;20194;-71
2022/05/25 04:03:58;;;;;;;0.00;0.00;;;12.40;1.00;226.50;231333.00;;;;5071876;28;20206;-70
2022/05/25 04:06:27;;;;;;;0.03;0.03;;;12.40;1.00;226.50;231333.00;;;;5071185;28;20584;-69
2022/05/25 04:08:56;;;;;;;0.10;0.10;;;12.40;1.00;226.50;231333.00;;;;5071877;28;20202;-69
2022/05/25 04:11:25;;;;;;;0.00;0.00;;;12.50;1.00;226.50;231333.00;;;;5072088;28;20523;-69
2022/05/25 04:13:54;;;;;;;0.10;0.10;;;12.50;1.00;226.50;231333.00;;;;5071220;28;20225;-70
2022/05/25 04:16:23;;;;;;;0.05;0.05;;;12.50;1.00;226.50;231333.00;;;;5070300;28;20194;-70
2022/05/25 04:18:52;;;;;;;0.00;0.00;;;12.60;1.00;226.50;231333.00;;;;5071096;28;20194;-70
2022/05/25 04:21:21;;;;;;;0.10;0.10;;;12.70;1.00;226.50;231333.00;;;;5068877;28;20194;-70
2022/05/25 04:23:49;;;;;;;0.00;0.00;;;12.70;1.00;226.50;231333.00;;;;5055519;28;20277;-70
2022/05/25 04:26:18;;;;;;;0.00;0.00;;;12.80;1.00;226.50;231333.00;;;;5068217;28;20206;-70
2022/05/25 04:28:46;;;;;;;0.10;0.10;;;12.80;1.00;226.50;231333.00;;;;5071496;28;20194;-70
2022/05/25 04:31:16;;;;;;;0.00;0.00;;;12.90;1.00;226.50;231333.00;;;;5072144;28;20210;-71
2022/05/25 04:33:45;;;;;;;0.10;0.10;;;12.90;1.00;226.50;231333.00;;;;5071585;28;20196;-71
2022/05/25 04:36:14;;;;;;;0.00;0.00;;;13.00;1.00;226.50;231333.00;;;;5070908;28;20197;-70
2022/05/25 04:38:42;;;;;;;0.10;0.10;;;13.10;1.00;226.50;231333.00;;;;5071210;28;20221;-71
2022/05/25 04:41:11;;;;;;;0.00;0.00;;;13.00;1.00;226.50;231333.00;;;;5067061;28;20217;-70
2022/05/25 04:43:40;;;;;;;0.00;0.00;;;13.10;1.00;226.50;231333.00;;;;5070938;28;20415;-70
2022/05/25 04:46:11;;;;;;;0.10;0.10;;;13.00;1.00;226.50;231333.00;;;;5061814;28;20194;-70
2022/05/25 04:48:40;;;;;;;0.00;0.00;;;12.90;1.00;226.50;231333.00;;;;5071430;28;20189;-70
2022/05/25 04:51:12;;;;;;;0.00;0.00;;;13.00;1.00;226.50;231333.00;;;;5070540;28;20223;-69
2022/05/25 04:53:42;;;;;;;0.00;0.00;;;13.00;1.00;226.50;231333.00;;;;5071589;28;20185;-70
2022/05/25 04:58:57;;;;;;;0.10;0.10;;;13.10;1.00;226.50;231333.00;;;;5071969;28;20201;-70
2022/05/25 05:01:25;;;;;;;0.00;0.00;;;13.00;1.00;226.50;231333.00;;;;5070771;28;20540;-69
2022/05/25 05:03:59;;;;;;;0.00;0.00;;;13.10;1.00;226.50;231333.00;;;;5071142;28;20196;-67
2022/05/25 05:06:29;;;;;;;0.05;0.05;;;13.10;1.00;226.50;231333.00;;;;5052726;28;20284;-70
2022/05/25 05:08:57;;;;;;;0.00;0.00;;;13.10;1.00;226.50;231333.00;;;;5070725;28;20679;-69
2022/05/25 05:11:26;;;;;;;0.10;0.10;;;13.10;1.00;226.50;231333.00;;;;5071431;28;20190;-69
2022/05/25 05:13:55;;;;;;;0.10;0.10;;;13.10;1.00;226.50;231333.00;;;;5071486;28;20190;-69
2022/05/25 05:16:24;;;;;;;0.05;0.05;;;13.10;1.00;226.50;231333.00;;;;5070144;28;20209;-69
2022/05/25 05:19:07;;;;;;;0.10;0.10;;;13.00;1.00;226.50;231333.00;;;;5053310;28;20642;-69
2022/05/25 05:21:57;;;;;;;0.10;0.10;;;12.80;1.00;226.50;231333.00;;;;5070729;28;20208;-70
2022/05/25 05:24:26;;;;;;;0.00;0.00;;;12.80;1.00;226.50;231333.00;;;;5071075;28;20239;-69
2022/05/25 05:26:55;;;;;;;0.10;0.10;;;12.80;1.00;226.50;231333.00;;;;5070855;28;20542;-70
2022/05/25 05:29:26;;;;;;;0.00;0.00;;;12.80;1.00;226.50;231333.00;;;;5069481;28;20263;-70
2022/05/25 05:31:54;;;;;;;0.05;0.05;;;12.80;1.00;226.50;231333.00;;;;5070330;28;20303;-71
2022/05/25 05:34:27;;;;;;;0.10;0.10;;;12.80;1.00;226.50;231333.00;;;;5070439;28;20543;-70
2022/05/25 05:37:05;;;;;;;0.00;0.00;;;12.80;1.10;226.50;231333.00;;;;5069789;28;20209;-71
2022/05/25 05:39:39;;;;;;;0.00;0.00;;;12.70;71.70;226.50;231333.00;;;;5070681;28;20236;-71
2022/05/25 05:42:13;;;;;;;0.05;0.05;;;12.70;99.90;226.50;231333.00;;;;5071080;28;20654;-70
2022/05/25 05:44:49;;;;;;;0.10;0.10;;;12.70;99.90;226.50;231333.00;;;;5070896;28;20259;-70
2022/05/25 05:47:23;;;;;;;0.10;0.10;;;12.80;99.90;226.50;231333.00;;;;5071049;28;20193;-71
2022/05/25 05:49:52;;;;;;;0.10;0.10;;;12.80;99.90;226.50;231333.00;;;;5070988;28;20213;-70
2022/05/25 05:52:28;;;;;;;0.10;0.10;;;12.80;99.90;226.50;231333.00;;;;5072534;28;20277;-70
2022/05/25 05:54:58;;;;;;;0.10;0.10;;;12.90;99.90;226.50;231333.00;;;;5073129;28;20602;-70
2022/05/25 05:57:26;;;;;;;0.10;0.10;;;13.00;99.90;226.50;231333.00;;;;5074192;28;20662;-70
2022/05/25 05:59:55;;;;;;;0.00;0.00;;;13.10;99.90;226.50;231333.00;;;;5074433;28;20210;-69
2022/05/25 06:02:24;;;;;;;0.10;0.10;;;13.20;99.90;226.50;231333.00;;;;5074729;28;20410;-70
2022/05/25 06:04:53;;;;;;;0.10;0.10;;;13.10;99.90;226.50;231333.00;;;;5074673;28;20197;-70
2022/05/25 06:07:22;;;;;;;0.00;0.00;;;13.20;99.90;226.50;231333.00;;;;5074316;28;20224;-70
2022/05/25 06:09:52;;;;;;;0.10;0.10;;;13.00;99.90;226.50;231333.00;;;;5074487;28;20218;-70
2022/05/25 06:12:21;;;;;;;0.00;0.00;;;13.00;99.90;226.50;231333.00;;;;5074364;28;20202;-70
2022/05/25 06:14:50;;;;;;;0.05;0.05;;;13.10;99.90;226.50;231333.00;;;;5074501;28;20631;-69
2022/05/25 06:20:07;;;;;;;0.00;0.00;;;13.10;99.90;226.50;231333.00;;;;5074233;28;20279;-70
2022/05/25 06:22:36;;;;;;;0.00;0.00;;;13.20;99.90;226.50;231333.00;;;;5074253;28;20190;-69
2022/05/25 06:25:08;;;;;;;0.10;0.10;;;13.20;99.90;226.50;231333.00;;;;5074497;28;20193;-69
2022/05/25 06:27:37;;;;;;;0.00;0.00;;;13.30;99.90;226.50;231333.00;;;;5073544;28;20275;-69
2022/05/25 06:30:07;;;;;;;0.00;0.00;;;13.30;99.90;226.50;231333.00;;;;5074341;28;20630;-69
2022/05/25 06:32:39;;;;;;;0.00;0.00;;;13.50;99.90;226.50;231333.00;;;;5056781;28;20185;-70
2022/05/25 06:35:10;;;;;;;0.10;0.10;;;13.60;99.90;226.50;231333.00;;;;5074182;28;20242;-70
2022/05/25 06:37:39;;;;;;;0.10;0.10;;;13.80;99.90;226.50;231333.00;;;;5073156;28;20225;-70
2022/05/25 06:40:10;;;;;;;0.00;0.00;;;13.90;99.90;226.50;231333.00;;;;5075476;28;20210;-70
2022/05/25 06:42:41;;;;;;;0.00;0.00;;;13.90;99.90;226.50;231333.00;;;;5074463;28;20189;-71
2022/05/25 06:45:12;;;;;;;0.10;0.10;;;14.00;99.90;226.50;231333.00;;;;5074352;28;20246;-70
2022/05/25 06:47:41;;;;;;;0.00;0.00;;;14.10;99.90;226.50;231333.00;;;;5073946;28;20190;-69
2022/05/25 06:50:10;;;;;;;0.08;0.08;;;14.20;99.90;226.50;231333.00;;;;5074470;28;20676;-70
2022/05/25 06:52:39;;;;;;;0.00;0.00;;;14.10;99.90;226.50;231333.00;;;;5074536;28;20255;-70
2022/05/25 06:55:09;;;;;;;0.00;0.00;;;14.20;99.90;226.50;231333.00;;;;5061148;28;20225;-69
2022/05/25 06:57:38;;;;;;;0.00;0.00;;;14.20;99.90;226.50;231333.00;;;;5067374;28;20610;-70
2022/05/25 07:00:08;;;;;;;0.00;0.00;;;14.30;99.90;226.50;231333.00;;;;5073686;28;20221;-69
2022/05/25 07:02:37;;;;;;;0.00;0.00;;;14.40;99.90;226.50;231333.00;;;;5073878;28;20194;-70
2022/05/25 07:05:07;;;;;;;0.00;0.00;;;14.40;97.00;226.50;231333.00;;;;5074757;28;20202;-69
2022/05/25 07:07:37;;;;;;;0.10;0.10;;;14.40;1.00;226.50;231333.00;;;;5073553;28;20197;-69
2022/05/25 07:10:09;;;;;;;0.00;0.00;;;14.40;1.00;226.50;231333.00;;;;5075280;28;20561;-69
2022/05/25 07:12:38;;;;;;;0.03;0.03;;;14.50;1.00;226.50;231333.00;;;;5074344;28;20200;-70
2022/05/25 07:15:08;;;;;;;0.03;0.03;;;14.50;1.00;226.50;231333.00;;;;5074987;28;20208;-69
2022/05/25 07:17:36;;;;;;;0.00;0.00;;;14.60;1.00;226.50;231333.00;;;;5073576;28;20690;-69
2022/05/25 07:20:09;;;;;;;0.00;0.00;;;14.60;1.00;226.50;231333.00;;;;5073718;28;20710;-70
2022/05/25 07:22:40;;;;;;;0.00;0.00;;;14.70;1.00;226.50;231333.00;;;;5073855;28;20198;-70
2022/05/25 07:25:11;;;;;;;0.00;0.00;;;14.70;1.00;226.50;231333.00;;;;5073637;28;20252;-69
2022/05/25 07:27:40;;;;;;;0.00;0.00;;;14.60;1.00;226.50;231333.00;;;;5073342;28;20201;-70
2022/05/25 07:30:09;;;;;;;0.00;0.00;;;14.70;1.00;226.50;231333.00;;;;5073528;28;20231;-70
2022/05/25 07:32:38;;;;;;;0.00;0.00;;;14.70;1.00;226.50;231333.00;;;;5064494;28;20206;-70
2022/05/25 07:35:11;;;;;;;0.00;0.00;;;14.60;1.00;226.50;231333.00;;;;5063355;28;20201;-70
2022/05/25 07:37:43;;;;;;;0.00;0.00;;;14.70;1.00;226.50;231333.00;;;;5072626;28;20225;-70
2022/05/25 07:40:21;;;;;;;0.00;0.00;;;14.70;1.00;226.50;231333.00;;;;5073642;28;20213;-70
2022/05/25 07:42:55;;;;;;;0.00;0.00;;;14.70;1.00;226.50;231333.00;;;;5073587;28;20193;-69
2022/05/25 07:45:24;;;;;;;0.00;0.00;;;14.90;1.00;226.50;231333.00;;;;5073617;28;20194;-70
2022/05/25 07:47:54;;;;;;;0.00;0.00;;;15.00;1.00;226.50;231333.00;;;;5072811;28;20198;-70
2022/05/25 07:50:23;;;;;;;0.00;0.00;;;15.20;1.00;226.50;231333.00;;;;5073189;28;20218;-70
2022/05/25 07:52:55;;;;;;;0.00;0.00;;;15.20;1.00;226.50;231333.00;;;;5072899;28;20209;-69
2022/05/25 07:55:25;;;;;;;0.00;0.00;;;15.30;1.00;226.50;231333.00;;;;5072867;28;20659;-70
2022/05/25 07:57:54;;;;;;;0.00;0.00;;;15.30;1.00;226.50;231333.00;;;;5072079;28;20280;-70
2022/05/25 08:00:25;;;;;;;0.00;0.00;;;15.40;1.00;226.50;231333.00;;;;5073918;28;20252;-69
2022/05/25 08:05:47;;;;;;;0.00;0.00;;;15.40;1.00;226.50;231333.00;;;;5074129;28;20221;-70
2022/05/25 08:08:20;;;;;;;0.00;0.00;;;15.60;1.00;226.50;231333.00;;;;5074556;28;20200;-70
2022/05/25 08:10:55;;;;;;;0.00;0.00;;;15.80;1.00;226.50;231333.00;;;;5074598;28;20281;-70
2022/05/25 08:13:25;;;;;;;0.00;0.00;;;16.10;99.90;226.50;231333.00;;;;5075186;28;20186;-70
2022/05/25 08:15:53;;;;;;;0.00;0.00;;;16.30;1.00;226.50;231333.00;;;;5073595;28;20198;-70
2022/05/25 08:18:22;;;;;;;0.00;0.00;;;16.50;99.90;226.50;231333.00;;;;5074615;28;20295;-70
2022/05/25 08:20:51;;;;;;;0.00;0.00;;;16.60;1.00;226.50;231333.00;;;;5078437;28;20218;-70
2022/05/25 08:23:19;;;;;;;0.00;0.00;;;16.70;99.90;226.50;231333.00;;;;5077524;28;20194;-70
2022/05/25 08:25:50;;;;;;;0.00;0.00;;;16.70;99.90;226.50;231333.00;;;;5072532;28;20671;-70
2022/05/25 08:28:18;;;;;;;0.00;0.00;;;16.70;1.00;226.50;231333.00;;;;5072787;28;20603;-70
2022/05/25 08:30:47;;;;;;;0.00;0.00;;;16.80;1.00;226.50;231333.00;;;;5072357;28;20209;-70
2022/05/25 08:33:18;;;;;;;0.00;0.00;;;16.80;1.00;226.50;231333.00;;;;5072793;28;20240;-71
2022/05/25 08:35:47;;;;;;;0.00;0.00;;;16.50;1.00;226.50;231333.00;;;;5072119;28;20686;-70
2022/05/25 08:38:16;;;;;;;0.00;0.00;;;16.40;99.90;226.50;231333.00;;;;5072765;28;20589;-70
2022/05/25 08:40:47;;;;;;;0.00;0.00;;;16.30;99.90;226.50;231333.00;;;;5072024;28;20594;-70
2022/05/25 08:43:21;;;;;;;0.00;0.00;;;16.20;11.00;226.50;231333.00;;;;5067991;28;20198;-70
2022/05/25 08:45:55;;;;;;;0.00;0.00;;;16.20;1.00;226.50;231333.00;;;;5052015;28;20205;-70
2022/05/25 08:48:26;;;;;;;0.00;0.00;;;16.30;99.90;226.50;231333.00;;;;5052885;28;20198;-70
2022/05/25 08:51:01;;;;;;;0.00;0.00;;;16.40;1.00;226.50;231333.00;;;;5051704;28;20276;-70
2022/05/25 08:53:34;;;;;;;0.00;0.00;;;16.60;1.00;226.50;231333.00;;;;5052762;28;20225;-70
2022/05/25 08:56:16;;;;;;;0.00;0.00;;;16.80;1.00;226.50;231333.00;;;;5051849;28;20183;-70
2022/05/25 08:58:51;;;;;;;0.00;0.00;;;17.00;5.20;226.50;231333.00;;;;5051952;28;20236;-70
2022/05/25 09:01:28;;;;;;;0.00;0.00;;;17.30;2.50;226.50;231333.00;;;;5052303;28;20695;-70
2022/05/25 09:04:08;;;;;;;0.00;0.00;;;17.50;54.30;226.50;231333.00;;;;5052278;28;20205;-71
2022/05/25 09:06:47;;;;;;;0.00;0.00;;;17.50;1.00;226.50;231333.00;;;;5051468;28;20198;-70
2022/05/25 09:09:25;;;;;;;0.00;0.00;;;17.70;1.00;226.50;231333.00;;;;5052255;28;20213;-70
2022/05/25 09:11:59;;;;;;;0.00;0.00;;;18.00;1.00;226.50;231333.00;;;;5051802;28;20288;-70
2022/05/25 09:14:37;;;;;;;0.00;0.00;;;18.30;30.40;226.50;231333.00;;;;5059345;28;20208;-70
2022/05/25 09:17:11;;;;;;;0.00;0.00;;;18.50;1.00;226.50;231333.00;;;;5052862;28;20232;-70
2022/05/25 09:19:45;;;;;;;0.00;0.00;;;18.80;31.40;226.50;231333.00;;;;5051974;28;20296;-69
2022/05/25 09:22:21;;;;;;;0.00;0.00;;;19.00;1.00;226.50;231333.00;;;;5051838;28;20667;-70
2022/05/25 09:24:53;;;;;;;0.00;0.00;;;19.10;1.00;226.50;231333.00;;;;5051791;28;20190;-70
2022/05/25 09:27:28;;;;;;;0.00;0.00;;;19.20;1.00;226.50;231333.00;;;;5051646;28;20263;-70
2022/05/25 09:30:02;;;;;;;0.00;0.00;;;19.30;1.00;226.50;231333.00;;;;5052824;28;20638;-69
2022/05/25 09:32:45;;;;;;;0.00;0.00;;;19.40;1.00;226.50;231333.00;;;;5056050;28;20190;-70
2022/05/25 09:35:19;;;;;;;0.00;0.00;;;19.70;99.90;226.50;231333.00;;;;5061487;28;20189;-70
2022/05/25 09:37:57;;;;;;;0.00;0.00;;;19.90;99.90;226.50;231333.00;;;;5074980;28;20221;-70
2022/05/25 09:40:34;;;;;;;0.00;0.00;;;20.20;99.90;226.50;231333.00;;;;5063696;28;20213;-72
2022/05/25 09:43:06;;;;;;;0.00;0.00;;;20.10;99.90;226.50;231333.00;;;;5076312;28;20204;-70
2022/05/25 09:45:45;;;;;;;0.00;0.00;;;20.30;99.90;226.50;231333.00;;;;5055558;28;20194;-71
2022/05/25 09:48:19;;;;;;;0.00;0.00;;;20.00;99.90;226.50;231333.00;;;;5055377;28;20255;-71
2022/05/25 09:50:54;;;;;;;0.00;0.00;;;20.10;90.50;226.50;231333.00;;;;5054812;28;20245;-71
2022/05/25 09:53:31;;;;;;;0.00;0.00;;;20.10;79.40;226.50;231333.00;;;;5055734;28;20190;-72
2022/05/25 09:56:09;;;;;;;0.00;0.00;;;20.50;80.40;226.50;231333.00;;;;5054405;28;20285;-71
2022/05/25 09:58:45;;;;;;;0.00;0.00;;;20.50;46.00;226.50;231333.00;;;;5055380;28;20214;-71
2022/05/25 10:01:30;;;;;;;0.00;0.00;;;20.40;46.20;226.50;231333.00;;;;5055291;28;20205;-71
2022/05/25 10:04:01;;;;;;;0.00;0.00;;;20.40;38.50;226.50;231333.00;;;;5055567;28;20277;-72
2022/05/25 10:06:48;;;;;;;0.00;0.00;;;20.00;37.00;226.50;231333.00;;;;5054444;28;20202;-71
2022/05/25 10:09:23;;;;;;;0.00;0.00;;;19.90;26.00;226.50;231333.00;;;;5057716;28;20238;-71
2022/05/25 10:11:55;;;;;;;0.00;0.00;;;19.70;6.60;226.50;231333.00;;;;5056092;28;20251;-71
2022/05/25 10:14:29;;;;;;;0.00;0.00;;;19.70;2.50;226.50;231333.00;;;;5058000;28;20194;-71
2022/05/25 10:17:08;;;;;;;0.00;0.00;;;19.80;1.00;226.50;231333.00;;;;5055675;28;20285;-70
2022/05/25 10:19:47;;;;;;;0.00;0.00;;;19.90;1.00;226.50;231333.00;;;;5056488;28;20718;-71
2022/05/25 10:22:34;;;;;;;0.00;0.00;;;19.80;1.00;226.50;231333.00;;;;5057007;28;20187;-71
2022/05/25 10:25:08;;;;;;;0.00;0.00;;;19.80;1.00;226.50;231333.00;;;;5056650;28;20202;-71
2022/05/25 10:27:43;;;;;;;0.00;0.00;;;19.70;5.70;226.50;231333.00;;;;5055812;28;20197;-71
2022/05/25 10:38:52;;;;;;;0.00;0.00;;;20.70;1.00;226.50;231333.00;;;;5054641;28;20215;-71
2022/05/25 10:41:43;;;;;;;0.00;0.00;;;20.40;1.00;226.50;231333.00;;;;5053709;28;20297;-70
2022/05/25 10:44:22;;;;;;;0.00;0.00;;;20.20;9.10;226.50;231333.00;;;;5054568;28;20193;-71
2022/05/25 10:46:55;;;;;;;0.00;0.00;;;20.40;1.00;226.50;231333.00;;;;5053592;28;20197;-71
2022/05/25 10:49:34;;;;;;;0.00;0.00;;;20.70;8.40;226.50;231333.00;;;;5055347;28;20226;-70
2022/05/25 10:52:09;;;;;;;0.00;0.00;;;21.20;93.90;226.50;231333.00;;;;5058962;28;20190;-70
2022/05/25 10:54:50;;;;;;;0.00;0.00;;;21.40;65.10;226.50;231333.00;;;;5062413;28;20194;-71
2022/05/25 10:58:10;;;;;;;0.00;0.00;;;21.40;1.00;226.50;231333.00;;;;5062368;28;20258;-72
2022/05/25 11:00:55;;;;;;;0.00;0.00;;;21.30;99.90;226.50;231333.00;;;;5060234;28;20214;-70
2022/05/25 11:03:59;;;;;;;0.00;0.00;;;20.50;99.90;226.50;231333.00;;;;5060648;28;20195;-70
2022/05/25 11:06:48;;;;;;;0.00;0.00;;;20.20;1.00;226.50;231333.00;;;;5060206;28;20198;-70
2022/05/25 11:09:37;;;;;;;0.00;0.00;;;20.10;1.00;226.50;231333.00;;;;5058262;28;20214;-72
2022/05/25 11:12:22;;;;;;;0.00;0.00;;;19.70;99.90;226.50;231333.00;;;;5057460;28;20199;-70
2022/05/25 11:15:05;;;;;;;0.00;0.00;;;19.80;99.90;226.50;231333.00;;;;5056720;28;20205;-70
2022/05/25 11:18:02;;;;;;;0.00;0.00;;;20.00;99.90;226.50;231333.00;;;;5056072;28;20210;-70
2022/05/25 11:20:39;;;;;;;0.00;0.00;;;19.80;1.00;226.50;231333.00;;;;5054027;28;20214;-72
2022/05/25 11:23:46;;;;;;;0.00;0.00;;;19.90;1.00;226.50;231333.00;;;;5053108;28;20226;-71
2022/05/25 11:26:42;;;;;;;0.00;0.00;;;19.90;99.90;226.50;231333.00;;;;5073413;28;20267;-70
2022/05/25 11:29:32;;;;;;;0.00;0.00;;;19.80;1.00;226.50;231333.00;;;;5069037;28;20225;-70
2022/05/25 11:32:15;;;;;;;0.00;0.00;;;19.70;99.90;226.50;231333.00;;;;5073036;28;20200;-71